sensor_id;sensor_type;location;lat;lon;timestamp;pressure;altitude;pressure_sealevel;temperature;humidity
16461;BME280;8341;42.048;24.650;2024-02-04T00:01:23;97539.50;;;9.69;55.57
16461;BME280;8341;42.048;24.650;2024-02-04T00:03:50;97542.38;;;9.75;55.81
16461;BME280;8341;42.048;24.650;2024-02-04T00:06:16;97540.53;;;9.81;55.38
16461;BME280;8341;42.048;24.650;2024-02-04T00:08:43;97535.09;;;9.81;55.80
16461;BME280;8341;42.048;24.650;2024-02-04T00:11:10;97538.69;;;9.87;55.28
16461;BME280;8341;42.048;24.650;2024-02-04T00:13:37;97543.84;;;9.85;55.50
16461;BME280;8341;42.048;24.650;2024-02-04T00:16:04;97543.22;;;9.90;55.00
16461;BME280;8341;42.048;24.650;2024-02-04T00:18:32;97546.84;;;9.87;55.19
16461;BME280;8341;42.048;24.650;2024-02-04T00:20:59;97539.28;;;9.91;55.37
16461;BME280;8341;42.048;24.650;2024-02-04T00:23:26;97544.75;;;9.91;55.10
16461;BME280;8341;42.048;24.650;2024-02-04T00:25:53;97542.59;;;9.95;54.68
16461;BME280;8341;42.048;24.650;2024-02-04T00:28:20;97545.31;;;9.95;54.49
16461;BME280;8341;42.048;24.650;2024-02-04T00:30:47;97542.53;;;10.04;54.77
16461;BME280;8341;42.048;24.650;2024-02-04T00:33:15;97536.53;;;10.00;54.61
16461;BME280;8341;42.048;24.650;2024-02-04T00:35:43;97554.53;;;10.06;54.25
16461;BME280;8341;42.048;24.650;2024-02-04T00:38:10;97561.94;;;9.97;53.99
16461;BME280;8341;42.048;24.650;2024-02-04T00:40:37;97558.31;;;10.00;54.07
16461;BME280;8341;42.048;24.650;2024-02-04T00:43:04;97554.06;;;9.99;53.81
16461;BME280;8341;42.048;24.650;2024-02-04T00:45:30;97547.41;;;10.00;54.23
16461;BME280;8341;42.048;24.650;2024-02-04T00:47:57;97560.00;;;9.97;54.11
16461;BME280;8341;42.048;24.650;2024-02-04T00:50:24;97567.53;;;10.02;54.12
16461;BME280;8341;42.048;24.650;2024-02-04T00:52:52;97569.78;;;10.04;54.19
16461;BME280;8341;42.048;24.650;2024-02-04T00:55:19;97571.94;;;10.00;54.37
16461;BME280;8341;42.048;24.650;2024-02-04T00:57:45;97569.06;;;10.03;54.37
16461;BME280;8341;42.048;24.650;2024-02-04T01:00:13;97570.25;;;10.02;54.46
16461;BME280;8341;42.048;24.650;2024-02-04T01:02:40;97573.91;;;9.99;54.01
16461;BME280;8341;42.048;24.650;2024-02-04T01:05:08;97566.34;;;10.03;54.25
16461;BME280;8341;42.048;24.650;2024-02-04T01:07:34;97578.56;;;10.08;53.65
16461;BME280;8341;42.048;24.650;2024-02-04T01:10:03;97574.78;;;10.05;53.91
16461;BME280;8341;42.048;24.650;2024-02-04T01:12:30;97577.09;;;9.98;54.57
16461;BME280;8341;42.048;24.650;2024-02-04T01:14:56;97572.50;;;10.04;54.06
16461;BME280;8341;42.048;24.650;2024-02-04T01:17:23;97588.56;;;10.02;54.43
16461;BME280;8341;42.048;24.650;2024-02-04T01:19:50;97586.13;;;10.04;54.02
16461;BME280;8341;42.048;24.650;2024-02-04T01:22:17;97582.53;;;9.98;54.71
16461;BME280;8341;42.048;24.650;2024-02-04T01:24:44;97577.69;;;10.02;54.41
16461;BME280;8341;42.048;24.650;2024-02-04T01:27:15;97566.78;;;10.02;54.80
16461;BME280;8341;42.048;24.650;2024-02-04T01:29:41;97576.97;;;9.92;54.69
16461;BME280;8341;42.048;24.650;2024-02-04T01:32:08;97566.53;;;9.82;55.20
16461;BME280;8341;42.048;24.650;2024-02-04T01:34:35;97564.44;;;9.86;55.25
16461;BME280;8341;42.048;24.650;2024-02-04T01:37:02;97562.34;;;9.81;55.60
16461;BME280;8341;42.048;24.650;2024-02-04T01:39:29;97564.13;;;9.84;56.02
16461;BME280;8341;42.048;24.650;2024-02-04T01:41:55;97554.59;;;9.79;55.74
16461;BME280;8341;42.048;24.650;2024-02-04T01:44:23;97538.25;;;9.79;56.22
16461;BME280;8341;42.048;24.650;2024-02-04T01:46:51;97549.28;;;9.85;56.28
16461;BME280;8341;42.048;24.650;2024-02-04T01:49:18;97539.31;;;9.82;55.89
16461;BME280;8341;42.048;24.650;2024-02-04T01:51:44;97542.03;;;9.82;56.16
16461;BME280;8341;42.048;24.650;2024-02-04T01:54:11;97540.53;;;9.81;56.17
16461;BME280;8341;42.048;24.650;2024-02-04T01:56:38;97539.78;;;9.80;56.61
16461;BME280;8341;42.048;24.650;2024-02-04T01:59:05;97540.25;;;9.70;56.96
16461;BME280;8341;42.048;24.650;2024-02-04T02:01:34;97544.19;;;9.69;57.07
16461;BME280;8341;42.048;24.650;2024-02-04T02:04:01;97537.84;;;9.72;57.03
16461;BME280;8341;42.048;24.650;2024-02-04T02:06:28;97538.72;;;9.78;56.81
16461;BME280;8341;42.048;24.650;2024-02-04T02:08:55;97548.56;;;9.75;56.84
16461;BME280;8341;42.048;24.650;2024-02-04T02:11:40;97539.94;;;9.77;57.12
16461;BME280;8341;42.048;24.650;2024-02-04T02:14:13;97539.31;;;9.82;56.90
16461;BME280;8341;42.048;24.650;2024-02-04T02:16:43;97531.63;;;9.71;57.34
16461;BME280;8341;42.048;24.650;2024-02-04T02:19:24;97529.50;;;9.75;57.47
16461;BME280;8341;42.048;24.650;2024-02-04T02:22:01;97528.13;;;9.80;57.21
16461;BME280;8341;42.048;24.650;2024-02-04T02:24:33;97530.88;;;9.71;57.35
16461;BME280;8341;42.048;24.650;2024-02-04T02:27:01;97526.94;;;9.72;57.98
16461;BME280;8341;42.048;24.650;2024-02-04T02:29:27;97523.94;;;9.70;57.64
16461;BME280;8341;42.048;24.650;2024-02-04T02:31:55;97530.56;;;9.78;57.60
16461;BME280;8341;42.048;24.650;2024-02-04T02:34:21;97525.25;;;9.74;57.68
16461;BME280;8341;42.048;24.650;2024-02-04T02:36:55;97523.59;;;9.77;57.10
16461;BME280;8341;42.048;24.650;2024-02-04T02:39:26;97520.59;;;9.75;57.60
16461;BME280;8341;42.048;24.650;2024-02-04T02:41:57;97525.75;;;9.73;57.86
16461;BME280;8341;42.048;24.650;2024-02-04T02:44:26;97515.00;;;9.69;57.45
16461;BME280;8341;42.048;24.650;2024-02-04T02:46:54;97508.50;;;9.67;57.70
16461;BME280;8341;42.048;24.650;2024-02-04T02:49:22;97511.09;;;9.61;57.95
16461;BME280;8341;42.048;24.650;2024-02-04T02:51:49;97512.28;;;9.69;57.31
16461;BME280;8341;42.048;24.650;2024-02-04T02:54:16;97505.16;;;9.72;57.51
16461;BME280;8341;42.048;24.650;2024-02-04T02:56:43;97500.47;;;9.72;57.21
16461;BME280;8341;42.048;24.650;2024-02-04T02:59:11;97500.97;;;9.62;57.86
16461;BME280;8341;42.048;24.650;2024-02-04T03:01:39;97486.75;;;9.58;57.79
16461;BME280;8341;42.048;24.650;2024-02-04T03:04:06;97482.19;;;9.64;57.33
16461;BME280;8341;42.048;24.650;2024-02-04T03:06:32;97493.69;;;9.68;56.95
16461;BME280;8341;42.048;24.650;2024-02-04T03:08:59;97495.66;;;9.67;57.14
16461;BME280;8341;42.048;24.650;2024-02-04T03:11:26;97494.25;;;9.72;56.86
16461;BME280;8341;42.048;24.650;2024-02-04T03:13:53;97490.16;;;9.76;56.93
16461;BME280;8341;42.048;24.650;2024-02-04T03:16:21;97481.69;;;9.74;57.13
16461;BME280;8341;42.048;24.650;2024-02-04T03:18:48;97488.31;;;9.82;56.79
16461;BME280;8341;42.048;24.650;2024-02-04T03:21:15;97479.88;;;9.80;56.55
16461;BME280;8341;42.048;24.650;2024-02-04T03:23:43;97471.47;;;9.93;56.23
16461;BME280;8341;42.048;24.650;2024-02-04T03:26:10;97492.28;;;10.05;55.73
16461;BME280;8341;42.048;24.650;2024-02-04T03:28:37;97483.81;;;10.12;55.90
16461;BME280;8341;42.048;24.650;2024-02-04T03:31:04;97477.72;;;10.17;55.30
16461;BME280;8341;42.048;24.650;2024-02-04T03:33:32;97479.38;;;10.24;55.04
16461;BME280;8341;42.048;24.650;2024-02-04T03:35:59;97480.44;;;10.17;55.48
16461;BME280;8341;42.048;24.650;2024-02-04T03:38:25;97477.09;;;10.22;55.51
16461;BME280;8341;42.048;24.650;2024-02-04T03:40:52;97477.97;;;10.28;55.56
16461;BME280;8341;42.048;24.650;2024-02-04T03:43:19;97466.78;;;10.26;55.14
16461;BME280;8341;42.048;24.650;2024-02-04T03:45:46;97467.81;;;10.29;55.72
16461;BME280;8341;42.048;24.650;2024-02-04T03:48:12;97476.28;;;10.31;55.58
16461;BME280;8341;42.048;24.650;2024-02-04T03:50:40;97484.88;;;10.38;55.10
16461;BME280;8341;42.048;24.650;2024-02-04T03:53:07;97484.22;;;10.43;55.29
16461;BME280;8341;42.048;24.650;2024-02-04T03:55:34;97479.41;;;10.38;55.18
16461;BME280;8341;42.048;24.650;2024-02-04T03:58:01;97472.56;;;10.43;54.91
16461;BME280;8341;42.048;24.650;2024-02-04T04:00:27;97470.44;;;10.47;55.18
16461;BME280;8341;42.048;24.650;2024-02-04T04:02:54;97457.88;;;10.64;54.34
16461;BME280;8341;42.048;24.650;2024-02-04T04:05:21;97467.44;;;10.59;54.71
16461;BME280;8341;42.048;24.650;2024-02-04T04:07:49;97459.16;;;10.54;54.74
16461;BME280;8341;42.048;24.650;2024-02-04T04:10:16;97467.50;;;10.50;54.41
16461;BME280;8341;42.048;24.650;2024-02-04T04:12:43;97471.59;;;10.55;54.34
16461;BME280;8341;42.048;24.650;2024-02-04T04:15:09;97463.34;;;10.40;54.79
16461;BME280;8341;42.048;24.650;2024-02-04T04:17:36;97473.50;;;10.40;55.24
16461;BME280;8341;42.048;24.650;2024-02-04T04:20:04;97465.03;;;10.38;55.07
16461;BME280;8341;42.048;24.650;2024-02-04T04:22:31;97459.75;;;10.34;54.97
16461;BME280;8341;42.048;24.650;2024-02-04T04:24:59;97468.88;;;10.31;55.13
16461;BME280;8341;42.048;24.650;2024-02-04T04:27:26;97463.41;;;10.31;54.54
16461;BME280;8341;42.048;24.650;2024-02-04T04:29:53;97463.25;;;10.35;54.68
16461;BME280;8341;42.048;24.650;2024-02-04T04:32:19;97468.88;;;10.31;55.43
16461;BME280;8341;42.048;24.650;2024-02-04T04:34:46;97465.53;;;10.27;55.53
16461;BME280;8341;42.048;24.650;2024-02-04T04:37:13;97458.31;;;10.24;55.46
16461;BME280;8341;42.048;24.650;2024-02-04T04:39:39;97450.19;;;10.15;55.78
16461;BME280;8341;42.048;24.650;2024-02-04T04:42:08;97456.59;;;10.03;56.29
16461;BME280;8341;42.048;24.650;2024-02-04T04:44:34;97461.16;;;9.97;56.83
16461;BME280;8341;42.048;24.650;2024-02-04T04:47:01;97456.75;;;9.99;56.96
16461;BME280;8341;42.048;24.650;2024-02-04T04:49:28;97451.72;;;10.07;57.13
16461;BME280;8341;42.048;24.650;2024-02-04T04:51:55;97445.78;;;10.18;56.68
16461;BME280;8341;42.048;24.650;2024-02-04T04:54:22;97448.97;;;10.16;57.08
16461;BME280;8341;42.048;24.650;2024-02-04T04:56:48;97437.25;;;10.25;56.52
16461;BME280;8341;42.048;24.650;2024-02-04T04:59:17;97429.78;;;10.34;56.73
16461;BME280;8341;42.048;24.650;2024-02-04T05:01:47;97443.06;;;10.41;56.31
16461;BME280;8341;42.048;24.650;2024-02-04T05:04:15;97434.00;;;10.35;56.82
16461;BME280;8341;42.048;24.650;2024-02-04T05:06:42;97428.50;;;10.44;56.56
16461;BME280;8341;42.048;24.650;2024-02-04T05:09:09;97443.34;;;10.43;56.40
16461;BME280;8341;42.048;24.650;2024-02-04T05:11:35;97450.81;;;10.34;57.21
16461;BME280;8341;42.048;24.650;2024-02-04T05:14:02;97458.25;;;10.33;57.10
16461;BME280;8341;42.048;24.650;2024-02-04T05:16:30;97469.22;;;10.24;57.43
16461;BME280;8341;42.048;24.650;2024-02-04T05:18:57;97462.38;;;10.29;57.56
16461;BME280;8341;42.048;24.650;2024-02-04T05:21:24;97467.59;;;10.41;57.11
16461;BME280;8341;42.048;24.650;2024-02-04T05:23:51;97485.28;;;10.46;56.94
16461;BME280;8341;42.048;24.650;2024-02-04T05:26:17;97483.78;;;10.45;57.02
16461;BME280;8341;42.048;24.650;2024-02-04T05:28:45;97489.97;;;10.45;57.11
16461;BME280;8341;42.048;24.650;2024-02-04T05:31:11;97490.72;;;10.46;56.72
16461;BME280;8341;42.048;24.650;2024-02-04T05:33:40;97492.03;;;10.50;56.65
16461;BME280;8341;42.048;24.650;2024-02-04T05:36:07;97503.31;;;10.43;56.67
16461;BME280;8341;42.048;24.650;2024-02-04T05:38:33;97509.66;;;10.49;56.65
16461;BME280;8341;42.048;24.650;2024-02-04T05:41:00;97519.44;;;10.56;56.80
16461;BME280;8341;42.048;24.650;2024-02-04T05:43:27;97517.41;;;10.42;57.25
16461;BME280;8341;42.048;24.650;2024-02-04T05:45:54;97523.72;;;10.48;57.18
16461;BME280;8341;42.048;24.650;2024-02-04T05:48:21;97528.53;;;10.53;56.50
16461;BME280;8341;42.048;24.650;2024-02-04T05:50:49;97534.47;;;10.51;56.83
16461;BME280;8341;42.048;24.650;2024-02-04T05:53:15;97532.38;;;10.46;57.20
16461;BME280;8341;42.048;24.650;2024-02-04T05:55:43;97537.19;;;10.51;56.93
16461;BME280;8341;42.048;24.650;2024-02-04T05:58:10;97535.66;;;10.50;57.25
16461;BME280;8341;42.048;24.650;2024-02-04T06:00:38;97531.09;;;10.56;57.00
16461;BME280;8341;42.048;24.650;2024-02-04T06:03:05;97541.09;;;10.59;56.95
16461;BME280;8341;42.048;24.650;2024-02-04T06:05:32;97531.06;;;10.65;56.72
16461;BME280;8341;42.048;24.650;2024-02-04T06:08:00;97530.69;;;10.73;56.87
16461;BME280;8341;42.048;24.650;2024-02-04T06:10:27;97537.72;;;10.64;57.21
16461;BME280;8341;42.048;24.650;2024-02-04T06:12:54;97541.09;;;10.59;57.42
16461;BME280;8341;42.048;24.650;2024-02-04T06:15:21;97546.53;;;10.59;57.20
16461;BME280;8341;42.048;24.650;2024-02-04T06:17:47;97542.25;;;10.67;57.25
16461;BME280;8341;42.048;24.650;2024-02-04T06:20:14;97548.50;;;10.59;57.61
16461;BME280;8341;42.048;24.650;2024-02-04T06:22:41;97531.38;;;10.58;58.01
16461;BME280;8341;42.048;24.650;2024-02-04T06:25:09;97524.72;;;10.59;58.51
16461;BME280;8341;42.048;24.650;2024-02-04T06:27:36;97521.06;;;10.62;58.63
16461;BME280;8341;42.048;24.650;2024-02-04T06:30:04;97512.53;;;10.69;58.37
16461;BME280;8341;42.048;24.650;2024-02-04T06:32:30;97515.81;;;10.74;57.65
16461;BME280;8341;42.048;24.650;2024-02-04T06:34:57;97502.66;;;10.72;58.02
16461;BME280;8341;42.048;24.650;2024-02-04T06:37:24;97497.19;;;10.72;58.51
16461;BME280;8341;42.048;24.650;2024-02-04T06:39:52;97499.28;;;10.77;58.10
16461;BME280;8341;42.048;24.650;2024-02-04T06:42:20;97502.88;;;10.83;58.29
16461;BME280;8341;42.048;24.650;2024-02-04T06:44:47;97495.25;;;10.87;58.42
16461;BME280;8341;42.048;24.650;2024-02-04T06:47:13;97501.69;;;10.99;58.10
16461;BME280;8341;42.048;24.650;2024-02-04T06:49:43;97508.00;;;11.05;57.77
16461;BME280;8341;42.048;24.650;2024-02-04T06:52:10;97519.28;;;11.12;58.28
16461;BME280;8341;42.048;24.650;2024-02-04T06:54:37;97526.94;;;11.23;58.01
16461;BME280;8341;42.048;24.650;2024-02-04T06:57:04;97527.13;;;11.19;58.17
16461;BME280;8341;42.048;24.650;2024-02-04T06:59:32;97532.31;;;11.32;57.81
16461;BME280;8341;42.048;24.650;2024-02-04T07:01:59;97542.38;;;11.41;57.97
16461;BME280;8341;42.048;24.650;2024-02-04T07:04:26;97540.31;;;11.36;57.81
16461;BME280;8341;42.048;24.650;2024-02-04T07:06:52;97544.94;;;11.44;58.09
16461;BME280;8341;42.048;24.650;2024-02-04T07:09:19;97551.34;;;11.56;57.83
16461;BME280;8341;42.048;24.650;2024-02-04T07:11:46;97543.84;;;11.65;58.11
16461;BME280;8341;42.048;24.650;2024-02-04T07:14:13;97558.06;;;11.69;57.72
16461;BME280;8341;42.048;24.650;2024-02-04T07:16:41;97549.31;;;11.80;57.54
16461;BME280;8341;42.048;24.650;2024-02-04T07:19:08;97565.53;;;11.83;57.65
16461;BME280;8341;42.048;24.650;2024-02-04T07:21:35;97564.19;;;11.79;58.53
16461;BME280;8341;42.048;24.650;2024-02-04T07:24:01;97555.50;;;11.66;58.28
16461;BME280;8341;42.048;24.650;2024-02-04T07:26:28;97568.72;;;11.82;57.89
16461;BME280;8341;42.048;24.650;2024-02-04T07:28:55;97562.66;;;11.63;58.39
16461;BME280;8341;42.048;24.650;2024-02-04T07:31:22;97563.81;;;11.71;59.06
16461;BME280;8341;42.048;24.650;2024-02-04T07:33:50;97569.38;;;11.77;58.62
16461;BME280;8341;42.048;24.650;2024-02-04T07:36:17;97574.38;;;11.78;58.95
16461;BME280;8341;42.048;24.650;2024-02-04T07:38:43;97564.13;;;11.73;58.30
16461;BME280;8341;42.048;24.650;2024-02-04T07:41:13;97572.19;;;11.97;57.60
16461;BME280;8341;42.048;24.650;2024-02-04T07:43:40;97576.81;;;12.06;58.03
16461;BME280;8341;42.048;24.650;2024-02-04T07:46:07;97574.00;;;11.85;58.01
16461;BME280;8341;42.048;24.650;2024-02-04T07:48:34;97566.34;;;11.89;58.43
16461;BME280;8341;42.048;24.650;2024-02-04T07:51:03;97563.91;;;12.06;57.93
16461;BME280;8341;42.048;24.650;2024-02-04T07:53:29;97563.97;;;12.12;57.12
16461;BME280;8341;42.048;24.650;2024-02-04T07:55:56;97559.25;;;12.12;57.40
16461;BME280;8341;42.048;24.650;2024-02-04T07:58:23;97534.00;;;12.03;57.80
16461;BME280;8341;42.048;24.650;2024-02-04T08:00:51;97554.72;;;12.24;57.33
16461;BME280;8341;42.048;24.650;2024-02-04T08:03:18;97559.31;;;12.32;57.22
16461;BME280;8341;42.048;24.650;2024-02-04T08:05:45;97559.28;;;12.47;56.91
16461;BME280;8341;42.048;24.650;2024-02-04T08:08:13;97557.22;;;12.42;56.59
16461;BME280;8341;42.048;24.650;2024-02-04T08:10:40;97550.44;;;12.37;56.18
16461;BME280;8341;42.048;24.650;2024-02-04T08:13:07;97552.41;;;12.37;57.41
16461;BME280;8341;42.048;24.650;2024-02-04T08:15:34;97534.50;;;12.36;57.22
16461;BME280;8341;42.048;24.650;2024-02-04T08:18:00;97536.13;;;12.48;56.91
16461;BME280;8341;42.048;24.650;2024-02-04T08:20:26;97534.91;;;12.49;56.85
16461;BME280;8341;42.048;24.650;2024-02-04T08:22:54;97532.09;;;12.43;56.29
16461;BME280;8341;42.048;24.650;2024-02-04T08:25:22;97531.34;;;12.43;56.07
16461;BME280;8341;42.048;24.650;2024-02-04T08:27:49;97523.03;;;12.52;56.50
16461;BME280;8341;42.048;24.650;2024-02-04T08:30:15;97518.94;;;12.62;56.12
16461;BME280;8341;42.048;24.650;2024-02-04T08:32:45;97538.16;;;12.68;55.63
16461;BME280;8341;42.048;24.650;2024-02-04T08:35:12;97534.13;;;12.83;55.71
16461;BME280;8341;42.048;24.650;2024-02-04T08:37:39;97525.66;;;12.81;55.23
16461;BME280;8341;42.048;24.650;2024-02-04T08:40:06;97536.38;;;12.85;54.86
16461;BME280;8341;42.048;24.650;2024-02-04T08:42:35;97525.28;;;13.14;53.83
16461;BME280;8341;42.048;24.650;2024-02-04T08:45:02;97528.19;;;13.31;53.61
16461;BME280;8341;42.048;24.650;2024-02-04T08:47:29;97524.34;;;13.43;53.62
16461;BME280;8341;42.048;24.650;2024-02-04T08:49:56;97524.47;;;13.59;52.01
16461;BME280;8341;42.048;24.650;2024-02-04T08:52:23;97536.56;;;13.73;51.93
16461;BME280;8341;42.048;24.650;2024-02-04T08:54:50;97531.25;;;13.95;51.06
16461;BME280;8341;42.048;24.650;2024-02-04T08:57:17;97526.03;;;13.97;50.45
16461;BME280;8341;42.048;24.650;2024-02-04T08:59:45;97532.97;;;13.93;50.86
16461;BME280;8341;42.048;24.650;2024-02-04T09:02:11;97532.13;;;14.12;49.78
16461;BME280;8341;42.048;24.650;2024-02-04T09:04:38;97540.94;;;14.22;49.98
16461;BME280;8341;42.048;24.650;2024-02-04T09:07:06;97540.59;;;14.09;50.22
16461;BME280;8341;42.048;24.650;2024-02-04T09:09:33;97536.56;;;13.73;50.53
16461;BME280;8341;42.048;24.650;2024-02-04T09:12:00;97542.56;;;13.77;50.33
16461;BME280;8341;42.048;24.650;2024-02-04T09:14:27;97532.38;;;13.77;50.73
16461;BME280;8341;42.048;24.650;2024-02-04T09:16:55;97536.72;;;13.95;50.05
16461;BME280;8341;42.048;24.650;2024-02-04T09:19:22;97542.47;;;13.97;50.19
16461;BME280;8341;42.048;24.650;2024-02-04T09:21:49;97546.94;;;13.89;49.77
16461;BME280;8341;42.048;24.650;2024-02-04T09:24:16;97532.78;;;13.96;49.75
16461;BME280;8341;42.048;24.650;2024-02-04T09:26:43;97533.22;;;13.89;50.00
16461;BME280;8341;42.048;24.650;2024-02-04T09:29:10;97533.13;;;13.78;50.22
16461;BME280;8341;42.048;24.650;2024-02-04T09:31:37;97536.56;;;13.73;49.68
16461;BME280;8341;42.048;24.650;2024-02-04T09:34:05;97524.41;;;13.79;50.15
16461;BME280;8341;42.048;24.650;2024-02-04T09:36:31;97520.63;;;13.77;49.73
16461;BME280;8341;42.048;24.650;2024-02-04T09:38:58;97519.78;;;13.91;49.73
16461;BME280;8341;42.048;24.650;2024-02-04T09:41:25;97505.09;;;13.94;49.34
16461;BME280;8341;42.048;24.650;2024-02-04T09:43:52;97501.66;;;14.05;48.72
16461;BME280;8341;42.048;24.650;2024-02-04T09:46:20;97496.25;;;14.16;48.72
16461;BME280;8341;42.048;24.650;2024-02-04T09:48:47;97495.91;;;14.39;47.92
16461;BME280;8341;42.048;24.650;2024-02-04T09:51:17;97495.22;;;14.50;47.63
16461;BME280;8341;42.048;24.650;2024-02-04T09:53:44;97487.13;;;14.83;47.47
16461;BME280;8341;42.048;24.650;2024-02-04T09:56:12;97481.91;;;14.91;46.88
16461;BME280;8341;42.048;24.650;2024-02-04T09:58:38;97484.19;;;15.03;46.00
16461;BME280;8341;42.048;24.650;2024-02-04T10:01:05;97481.19;;;15.13;46.10
16461;BME280;8341;42.048;24.650;2024-02-04T10:03:34;97488.66;;;14.95;45.76
16461;BME280;8341;42.048;24.650;2024-02-04T10:06:01;97482.91;;;14.93;46.16
16461;BME280;8341;42.048;24.650;2024-02-04T10:08:29;97471.91;;;14.88;45.89
16461;BME280;8341;42.048;24.650;2024-02-04T10:10:56;97473.44;;;14.89;45.84
16461;BME280;8341;42.048;24.650;2024-02-04T10:13:23;97468.53;;;14.56;46.14
16461;BME280;8341;42.048;24.650;2024-02-04T10:15:52;97478.31;;;14.63;47.04
16461;BME280;8341;42.048;24.650;2024-02-04T10:18:19;97486.63;;;14.85;46.25
16461;BME280;8341;42.048;24.650;2024-02-04T10:20:47;97486.13;;;14.81;47.45
16461;BME280;8341;42.048;24.650;2024-02-04T10:23:14;97482.03;;;14.60;46.98
16461;BME280;8341;42.048;24.650;2024-02-04T10:25:42;97483.81;;;14.63;47.41
16461;BME280;8341;42.048;24.650;2024-02-04T10:28:08;97490.94;;;14.43;47.66
16461;BME280;8341;42.048;24.650;2024-02-04T10:30:37;97486.38;;;14.29;48.19
16461;BME280;8341;42.048;24.650;2024-02-04T10:33:04;97496.06;;;14.30;48.55
16461;BME280;8341;42.048;24.650;2024-02-04T10:35:31;97500.75;;;14.56;47.62
16461;BME280;8341;42.048;24.650;2024-02-04T10:37:58;97500.53;;;14.65;47.19
16461;BME280;8341;42.048;24.650;2024-02-04T10:40:24;97491.50;;;14.59;47.60
16461;BME280;8341;42.048;24.650;2024-02-04T10:42:56;97493.81;;;14.66;47.51
16461;BME280;8341;42.048;24.650;2024-02-04T10:45:27;97494.59;;;14.83;47.75
16461;BME280;8341;42.048;24.650;2024-02-04T10:47:56;97474.22;;;15.06;47.10
16461;BME280;8341;42.048;24.650;2024-02-04T10:50:27;97475.50;;;15.33;46.37
16461;BME280;8341;42.048;24.650;2024-02-04T10:52:57;97475.06;;;15.45;44.91
16461;BME280;8341;42.048;24.650;2024-02-04T10:55:27;97481.00;;;15.38;45.16
16461;BME280;8341;42.048;24.650;2024-02-04T10:57:57;97480.56;;;15.51;44.92
16461;BME280;8341;42.048;24.650;2024-02-04T11:00:25;97489.06;;;15.58;44.59
16461;BME280;8341;42.048;24.650;2024-02-04T11:02:53;97489.03;;;15.75;44.26
16461;BME280;8341;42.048;24.650;2024-02-04T11:05:21;97498.03;;;15.98;43.98
16461;BME280;8341;42.048;24.650;2024-02-04T11:07:50;97490.03;;;16.00;43.75
16461;BME280;8341;42.048;24.650;2024-02-04T11:10:18;97486.06;;;15.79;43.88
16461;BME280;8341;42.048;24.650;2024-02-04T11:12:46;97482.28;;;15.65;43.95
16461;BME280;8341;42.048;24.650;2024-02-04T11:15:17;97490.53;;;15.59;43.81
16461;BME280;8341;42.048;24.650;2024-02-04T11:21:08;97494.41;;;14.97;44.83
16461;BME280;8341;42.048;24.650;2024-02-04T11:23:50;97490.63;;;14.84;45.62
16461;BME280;8341;42.048;24.650;2024-02-04T11:26:19;97498.63;;;14.87;45.07
16461;BME280;8341;42.048;24.650;2024-02-04T11:28:46;97507.66;;;15.04;45.27
16461;BME280;8341;42.048;24.650;2024-02-04T11:31:17;97483.72;;;15.22;44.76
16461;BME280;8341;42.048;24.650;2024-02-04T11:33:44;97489.53;;;15.51;44.30
16461;BME280;8341;42.048;24.650;2024-02-04T11:36:13;97488.06;;;15.78;43.66
16461;BME280;8341;42.048;24.650;2024-02-04T11:38:40;97501.06;;;15.89;43.57
16461;BME280;8341;42.048;24.650;2024-02-04T11:41:07;97487.78;;;15.93;43.84
16461;BME280;8341;42.048;24.650;2024-02-04T11:43:35;97487.28;;;15.89;43.89
16461;BME280;8341;42.048;24.650;2024-02-04T11:46:03;97491.03;;;15.86;43.76
16461;BME280;8341;42.048;24.650;2024-02-04T11:48:33;97466.03;;;15.95;43.48
16461;BME280;8341;42.048;24.650;2024-02-04T11:51:00;97469.81;;;15.81;43.71
16461;BME280;8341;42.048;24.650;2024-02-04T11:53:26;97473.53;;;15.78;43.95
16461;BME280;8341;42.048;24.650;2024-02-04T11:55:57;97468.56;;;15.71;44.15
16461;BME280;8341;42.048;24.650;2024-02-04T11:58:25;97470.06;;;15.60;44.14
16461;BME280;8341;42.048;24.650;2024-02-04T12:00:52;97475.00;;;15.34;44.42
16461;BME280;8341;42.048;24.650;2024-02-04T12:03:28;97463.50;;;15.19;45.21
16461;BME280;8341;42.048;24.650;2024-02-04T12:05:57;97457.47;;;15.15;45.84
16461;BME280;8341;42.048;24.650;2024-02-04T12:08:25;97468.72;;;15.12;46.03
16461;BME280;8341;42.048;24.650;2024-02-04T12:10:54;97456.00;;;15.14;46.13
16461;BME280;8341;42.048;24.650;2024-02-04T12:13:21;97471.28;;;15.43;45.79
16461;BME280;8341;42.048;24.650;2024-02-04T12:15:48;97448.53;;;15.42;46.17
16461;BME280;8341;42.048;24.650;2024-02-04T12:18:15;97439.28;;;15.34;45.73
16461;BME280;8341;42.048;24.650;2024-02-04T12:20:46;97438.53;;;15.39;46.35
16461;BME280;8341;42.048;24.650;2024-02-04T12:23:15;97439.56;;;15.47;46.24
16461;BME280;8341;42.048;24.650;2024-02-04T12:25:43;97438.06;;;15.46;46.14
16461;BME280;8341;42.048;24.650;2024-02-04T12:28:09;97449.28;;;15.43;46.40
16461;BME280;8341;42.048;24.650;2024-02-04T12:30:36;97439.75;;;15.16;46.44
16461;BME280;8341;42.048;24.650;2024-02-04T12:33:05;97455.75;;;15.12;46.19
16461;BME280;8341;42.048;24.650;2024-02-04T12:35:32;97451.00;;;15.18;47.02
16461;BME280;8341;42.048;24.650;2024-02-04T12:37:59;97444.75;;;15.12;46.77
16461;BME280;8341;42.048;24.650;2024-02-04T12:40:29;97452.00;;;15.04;47.11
16461;BME280;8341;42.048;24.650;2024-02-04T12:42:56;97439.00;;;15.10;46.87
16461;BME280;8341;42.048;24.650;2024-02-04T12:45:24;97437.25;;;15.07;46.49
16461;BME280;8341;42.048;24.650;2024-02-04T12:47:51;97434.25;;;14.94;47.24
16461;BME280;8341;42.048;24.650;2024-02-04T12:50:18;97430.00;;;15.04;47.68
16461;BME280;8341;42.048;24.650;2024-02-04T12:52:46;97418.53;;;15.11;46.82
16461;BME280;8341;42.048;24.650;2024-02-04T12:55:20;97420.50;;;15.05;47.25
16461;BME280;8341;42.048;24.650;2024-02-04T12:57:50;97418.00;;;14.96;47.01
16461;BME280;8341;42.048;24.650;2024-02-04T13:00:18;97425.69;;;14.70;48.00
16461;BME280;8341;42.048;24.650;2024-02-04T13:02:45;97424.41;;;14.60;48.29
16461;BME280;8341;42.048;24.650;2024-02-04T13:05:22;97423.63;;;14.48;48.74
16461;BME280;8341;42.048;24.650;2024-02-04T13:07:54;97427.06;;;14.37;48.86